sensor_id;sensor_type;location;lat;lon;timestamp;temperature;humidity
580;DHT22;276;48.392;9.950;2024-01-16T00:01:30;2.70;93.70
580;DHT22;276;48.392;9.950;2024-01-16T00:03:56;2.70;93.50
580;DHT22;276;48.392;9.950;2024-01-16T00:06:21;2.70;93.60
580;DHT22;276;48.392;9.950;2024-01-16T00:08:47;2.70;93.50
580;DHT22;276;48.392;9.950;2024-01-16T00:11:15;2.70;93.60
580;DHT22;276;48.392;9.950;2024-01-16T00:13:43;2.70;93.70
580;DHT22;276;48.392;9.950;2024-01-16T00:16:11;2.60;93.90
580;DHT22;276;48.392;9.950;2024-01-16T00:18:37;2.50;94.00
580;DHT22;276;48.392;9.950;2024-01-16T00:21:02;2.50;94.20
580;DHT22;276;48.392;9.950;2024-01-16T00:23:30;2.40;94.20
580;DHT22;276;48.392;9.950;2024-01-16T00:26:01;2.40;94.20
580;DHT22;276;48.392;9.950;2024-01-16T00:28:27;2.40;94.10
580;DHT22;276;48.392;9.950;2024-01-16T00:30:55;2.30;94.00
580;DHT22;276;48.392;9.950;2024-01-16T00:33:20;2.30;94.10
580;DHT22;276;48.392;9.950;2024-01-16T00:35:48;2.30;94.10
580;DHT22;276;48.392;9.950;2024-01-16T00:38:14;2.20;94.10
580;DHT22;276;48.392;9.950;2024-01-16T00:40:44;2.20;94.00
580;DHT22;276;48.392;9.950;2024-01-16T00:43:11;2.20;93.90
580;DHT22;276;48.392;9.950;2024-01-16T00:45:40;2.20;93.90
580;DHT22;276;48.392;9.950;2024-01-16T00:48:06;2.10;93.80
580;DHT22;276;48.392;9.950;2024-01-16T00:50:38;2.10;93.70
580;DHT22;276;48.392;9.950;2024-01-16T00:53:06;2.10;93.80
580;DHT22;276;48.392;9.950;2024-01-16T00:55:31;2.00;93.80
580;DHT22;276;48.392;9.950;2024-01-16T00:58:02;2.00;93.90
580;DHT22;276;48.392;9.950;2024-01-16T01:00:27;1.90;93.90
580;DHT22;276;48.392;9.950;2024-01-16T01:02:59;1.90;94.00
580;DHT22;276;48.392;9.950;2024-01-16T01:05:27;1.80;94.00
580;DHT22;276;48.392;9.950;2024-01-16T01:07:58;1.80;94.10
580;DHT22;276;48.392;9.950;2024-01-16T01:10:24;1.80;94.20
580;DHT22;276;48.392;9.950;2024-01-16T01:12:52;1.80;94.20
580;DHT22;276;48.392;9.950;2024-01-16T01:15:20;1.90;94.10
580;DHT22;276;48.392;9.950;2024-01-16T01:17:48;1.90;94.10
580;DHT22;276;48.392;9.950;2024-01-16T01:20:14;1.90;94.00
580;DHT22;276;48.392;9.950;2024-01-16T01:22:40;1.90;94.00
580;DHT22;276;48.392;9.950;2024-01-16T01:25:08;1.90;94.00
580;DHT22;276;48.392;9.950;2024-01-16T01:27:34;2.00;94.00
580;DHT22;276;48.392;9.950;2024-01-16T01:30:00;2.00;93.90
580;DHT22;276;48.392;9.950;2024-01-16T01:32:26;2.10;93.70
580;DHT22;276;48.392;9.950;2024-01-16T01:34:52;2.10;93.60
580;DHT22;276;48.392;9.950;2024-01-16T01:37:18;2.00;93.40
580;DHT22;276;48.392;9.950;2024-01-16T01:39:43;2.00;93.50
580;DHT22;276;48.392;9.950;2024-01-16T01:42:11;2.00;93.60
580;DHT22;276;48.392;9.950;2024-01-16T01:44:39;2.00;93.60
580;DHT22;276;48.392;9.950;2024-01-16T01:47:05;2.00;93.60
580;DHT22;276;48.392;9.950;2024-01-16T01:49:33;2.10;93.50
580;DHT22;276;48.392;9.950;2024-01-16T01:51:59;2.20;93.40
580;DHT22;276;48.392;9.950;2024-01-16T01:54:27;2.20;93.30
580;DHT22;276;48.392;9.950;2024-01-16T01:56:58;2.20;93.20
580;DHT22;276;48.392;9.950;2024-01-16T01:59:29;2.20;93.10
580;DHT22;276;48.392;9.950;2024-01-16T02:01:58;2.10;93.10
580;DHT22;276;48.392;9.950;2024-01-16T02:04:28;2.10;93.00
580;DHT22;276;48.392;9.950;2024-01-16T02:06:54;2.00;93.00
580;DHT22;276;48.392;9.950;2024-01-16T02:09:22;2.00;93.00
580;DHT22;276;48.392;9.950;2024-01-16T02:11:50;2.00;93.00
580;DHT22;276;48.392;9.950;2024-01-16T02:14:22;2.00;93.00
580;DHT22;276;48.392;9.950;2024-01-16T02:16:50;2.00;93.30
580;DHT22;276;48.392;9.950;2024-01-16T02:19:18;2.10;93.00
580;DHT22;276;48.392;9.950;2024-01-16T02:21:51;2.10;93.00
580;DHT22;276;48.392;9.950;2024-01-16T02:24:19;2.10;93.00
580;DHT22;276;48.392;9.950;2024-01-16T02:26:45;2.10;93.00
580;DHT22;276;48.392;9.950;2024-01-16T02:29:13;2.20;93.00
580;DHT22;276;48.392;9.950;2024-01-16T02:31:41;2.20;93.20
580;DHT22;276;48.392;9.950;2024-01-16T02:34:07;2.20;93.40
580;DHT22;276;48.392;9.950;2024-01-16T02:36:39;2.20;93.30
580;DHT22;276;48.392;9.950;2024-01-16T02:39:05;2.20;93.10
580;DHT22;276;48.392;9.950;2024-01-16T02:41:34;2.20;93.00
580;DHT22;276;48.392;9.950;2024-01-16T02:44:04;2.20;92.90
580;DHT22;276;48.392;9.950;2024-01-16T02:46:32;2.20;92.80
580;DHT22;276;48.392;9.950;2024-01-16T02:49:00;2.30;92.70
580;DHT22;276;48.392;9.950;2024-01-16T02:51:28;2.20;92.50
580;DHT22;276;48.392;9.950;2024-01-16T02:53:56;2.20;92.30
580;DHT22;276;48.392;9.950;2024-01-16T02:56:22;2.20;92.20
580;DHT22;276;48.392;9.950;2024-01-16T02:58:50;2.10;92.10
580;DHT22;276;48.392;9.950;2024-01-16T03:01:18;2.10;92.20
580;DHT22;276;48.392;9.950;2024-01-16T03:03:45;2.10;92.20
580;DHT22;276;48.392;9.950;2024-01-16T03:06:23;2.00;92.20
580;DHT22;276;48.392;9.950;2024-01-16T03:08:54;1.80;92.20
580;DHT22;276;48.392;9.950;2024-01-16T03:11:22;1.80;92.40
580;DHT22;276;48.392;9.950;2024-01-16T03:13:47;1.70;92.50
580;DHT22;276;48.392;9.950;2024-01-16T03:16:15;1.80;92.60
580;DHT22;276;48.392;9.950;2024-01-16T03:18:41;1.80;92.50
580;DHT22;276;48.392;9.950;2024-01-16T03:21:07;1.80;92.50
580;DHT22;276;48.392;9.950;2024-01-16T03:23:36;1.80;92.40
580;DHT22;276;48.392;9.950;2024-01-16T03:26:02;1.80;92.40
580;DHT22;276;48.392;9.950;2024-01-16T03:28:30;1.80;92.30
580;DHT22;276;48.392;9.950;2024-01-16T03:30:57;1.80;92.20
580;DHT22;276;48.392;9.950;2024-01-16T03:33:23;1.70;92.20
580;DHT22;276;48.392;9.950;2024-01-16T03:35:53;1.60;92.20
580;DHT22;276;48.392;9.950;2024-01-16T03:38:24;1.50;92.30
580;DHT22;276;48.392;9.950;2024-01-16T03:40:54;1.40;92.40
580;DHT22;276;48.392;9.950;2024-01-16T03:43:24;1.30;92.50
580;DHT22;276;48.392;9.950;2024-01-16T03:45:52;1.30;92.70
580;DHT22;276;48.392;9.950;2024-01-16T03:48:20;1.20;92.70
580;DHT22;276;48.392;9.950;2024-01-16T03:50:50;1.20;92.80
580;DHT22;276;48.392;9.950;2024-01-16T03:53:15;1.10;92.80
580;DHT22;276;48.392;9.950;2024-01-16T03:55:43;1.00;92.90
580;DHT22;276;48.392;9.950;2024-01-16T03:58:10;1.00;93.40
580;DHT22;276;48.392;9.950;2024-01-16T04:00:35;1.00;93.20
580;DHT22;276;48.392;9.950;2024-01-16T04:03:02;0.90;93.30
580;DHT22;276;48.392;9.950;2024-01-16T04:05:30;0.80;93.20
580;DHT22;276;48.392;9.950;2024-01-16T04:07:57;0.80;93.20
580;DHT22;276;48.392;9.950;2024-01-16T04:10:25;0.70;93.20
580;DHT22;276;48.392;9.950;2024-01-16T04:12:53;0.70;93.20
580;DHT22;276;48.392;9.950;2024-01-16T04:15:19;0.60;93.00
580;DHT22;276;48.392;9.950;2024-01-16T04:17:44;0.60;93.00
580;DHT22;276;48.392;9.950;2024-01-16T04:20:10;0.50;93.00
580;DHT22;276;48.392;9.950;2024-01-16T04:22:36;0.40;93.20
580;DHT22;276;48.392;9.950;2024-01-16T04:25:04;0.40;93.30
580;DHT22;276;48.392;9.950;2024-01-16T04:27:31;0.40;93.50
580;DHT22;276;48.392;9.950;2024-01-16T04:29:57;0.40;93.40
580;DHT22;276;48.392;9.950;2024-01-16T04:32:25;0.30;93.40
580;DHT22;276;48.392;9.950;2024-01-16T04:34:50;0.20;93.40
580;DHT22;276;48.392;9.950;2024-01-16T04:37:16;0.10;93.50
580;DHT22;276;48.392;9.950;2024-01-16T04:39:42;0.10;93.70
580;DHT22;276;48.392;9.950;2024-01-16T04:42:07;0.10;93.60
580;DHT22;276;48.392;9.950;2024-01-16T04:44:33;0.10;93.70
580;DHT22;276;48.392;9.950;2024-01-16T04:46:59;0.10;93.70
580;DHT22;276;48.392;9.950;2024-01-16T04:49:29;0.00;93.80
580;DHT22;276;48.392;9.950;2024-01-16T04:52:00;0.10;93.80
580;DHT22;276;48.392;9.950;2024-01-16T04:54:25;0.00;93.60
580;DHT22;276;48.392;9.950;2024-01-16T04:56:53;0.00;93.50
580;DHT22;276;48.392;9.950;2024-01-16T04:59:21;0.10;93.50
580;DHT22;276;48.392;9.950;2024-01-16T05:01:50;0.10;93.40
580;DHT22;276;48.392;9.950;2024-01-16T05:04:15;0.00;93.40
580;DHT22;276;48.392;9.950;2024-01-16T05:06:41;-0.10;93.30
580;DHT22;276;48.392;9.950;2024-01-16T05:09:07;-0.20;93.40
580;DHT22;276;48.392;9.950;2024-01-16T05:11:34;-0.30;93.60
580;DHT22;276;48.392;9.950;2024-01-16T05:14:00;-0.30;93.70
580;DHT22;276;48.392;9.950;2024-01-16T05:16:26;-0.30;93.80
580;DHT22;276;48.392;9.950;2024-01-16T05:18:54;-0.30;93.80
580;DHT22;276;48.392;9.950;2024-01-16T05:21:22;-0.30;93.80
580;DHT22;276;48.392;9.950;2024-01-16T05:23:48;-0.30;93.80
580;DHT22;276;48.392;9.950;2024-01-16T05:26:13;-0.20;93.80
580;DHT22;276;48.392;9.950;2024-01-16T05:28:39;-0.10;93.80
580;DHT22;276;48.392;9.950;2024-01-16T05:31:07;-0.10;93.70
580;DHT22;276;48.392;9.950;2024-01-16T05:33:35;0.00;93.60
580;DHT22;276;48.392;9.950;2024-01-16T05:36:01;-0.10;93.30
580;DHT22;276;48.392;9.950;2024-01-16T05:38:30;-0.10;93.30
580;DHT22;276;48.392;9.950;2024-01-16T05:40:55;-0.10;93.40
580;DHT22;276;48.392;9.950;2024-01-16T05:43:23;-0.10;93.30
580;DHT22;276;48.392;9.950;2024-01-16T05:45:49;-0.10;93.20
580;DHT22;276;48.392;9.950;2024-01-16T05:48:15;-0.20;93.20
580;DHT22;276;48.392;9.950;2024-01-16T05:50:41;-0.20;93.20
580;DHT22;276;48.392;9.950;2024-01-16T05:53:09;-0.20;93.40
580;DHT22;276;48.392;9.950;2024-01-16T05:55:35;-0.20;93.40
580;DHT22;276;48.392;9.950;2024-01-16T05:58:03;-0.10;93.60
580;DHT22;276;48.392;9.950;2024-01-16T06:00:31;0.00;93.80
580;DHT22;276;48.392;9.950;2024-01-16T06:02:58;0.20;93.90
580;DHT22;276;48.392;9.950;2024-01-16T06:05:24;0.20;93.80
580;DHT22;276;48.392;9.950;2024-01-16T06:07:50;0.30;93.90
580;DHT22;276;48.392;9.950;2024-01-16T06:10:15;0.40;94.00
580;DHT22;276;48.392;9.950;2024-01-16T06:12:43;0.50;94.00
580;DHT22;276;48.392;9.950;2024-01-16T06:15:09;0.50;93.90
580;DHT22;276;48.392;9.950;2024-01-16T06:17:37;0.60;93.90
580;DHT22;276;48.392;9.950;2024-01-16T06:20:02;0.60;93.80
580;DHT22;276;48.392;9.950;2024-01-16T06:22:30;0.60;93.50
580;DHT22;276;48.392;9.950;2024-01-16T06:24:58;0.60;93.00
580;DHT22;276;48.392;9.950;2024-01-16T06:27:26;0.60;92.80
580;DHT22;276;48.392;9.950;2024-01-16T06:29:52;0.60;92.90
580;DHT22;276;48.392;9.950;2024-01-16T06:32:17;0.60;92.90
580;DHT22;276;48.392;9.950;2024-01-16T06:34:43;0.60;93.10
580;DHT22;276;48.392;9.950;2024-01-16T06:37:09;0.70;93.20
580;DHT22;276;48.392;9.950;2024-01-16T06:39:36;0.70;93.10
580;DHT22;276;48.392;9.950;2024-01-16T06:42:07;0.70;93.10
580;DHT22;276;48.392;9.950;2024-01-16T06:44:38;0.70;93.20
580;DHT22;276;48.392;9.950;2024-01-16T06:47:03;0.80;93.20
580;DHT22;276;48.392;9.950;2024-01-16T06:49:34;0.80;93.10
580;DHT22;276;48.392;9.950;2024-01-16T06:52:00;0.80;93.10
580;DHT22;276;48.392;9.950;2024-01-16T06:54:27;0.90;93.20
580;DHT22;276;48.392;9.950;2024-01-16T06:56:55;0.90;93.10
580;DHT22;276;48.392;9.950;2024-01-16T06:59:23;1.00;93.10
580;DHT22;276;48.392;9.950;2024-01-16T07:01:51;1.00;93.00
580;DHT22;276;48.392;9.950;2024-01-16T07:04:17;1.00;93.00
580;DHT22;276;48.392;9.950;2024-01-16T07:06:45;1.10;93.00
580;DHT22;276;48.392;9.950;2024-01-16T07:09:14;1.10;93.00
580;DHT22;276;48.392;9.950;2024-01-16T07:11:41;1.10;92.90
580;DHT22;276;48.392;9.950;2024-01-16T07:14:09;1.20;93.00
580;DHT22;276;48.392;9.950;2024-01-16T07:16:37;1.20;92.90
580;DHT22;276;48.392;9.950;2024-01-16T07:19:05;1.20;93.00
580;DHT22;276;48.392;9.950;2024-01-16T07:21:33;1.30;93.00
580;DHT22;276;48.392;9.950;2024-01-16T07:23:59;1.20;92.90
580;DHT22;276;48.392;9.950;2024-01-16T07:26:25;1.30;92.90
580;DHT22;276;48.392;9.950;2024-01-16T07:28:50;1.30;93.10
580;DHT22;276;48.392;9.950;2024-01-16T07:31:18;1.30;93.20
580;DHT22;276;48.392;9.950;2024-01-16T07:33:45;1.30;93.30
580;DHT22;276;48.392;9.950;2024-01-16T07:36:11;1.40;93.30
580;DHT22;276;48.392;9.950;2024-01-16T07:38:37;1.40;93.20
580;DHT22;276;48.392;9.950;2024-01-16T07:41:03;1.50;93.10
580;DHT22;276;48.392;9.950;2024-01-16T07:43:29;1.40;93.10
580;DHT22;276;48.392;9.950;2024-01-16T07:46:00;1.50;93.10
580;DHT22;276;48.392;9.950;2024-01-16T07:48:28;1.50;93.30
580;DHT22;276;48.392;9.950;2024-01-16T07:50:56;1.60;93.30
580;DHT22;276;48.392;9.950;2024-01-16T07:53:21;1.60;93.20
580;DHT22;276;48.392;9.950;2024-01-16T07:55:47;1.60;93.20
580;DHT22;276;48.392;9.950;2024-01-16T07:58:13;1.60;93.10
580;DHT22;276;48.392;9.950;2024-01-16T08:00:41;1.60;92.90
580;DHT22;276;48.392;9.950;2024-01-16T08:03:12;1.70;93.00
580;DHT22;276;48.392;9.950;2024-01-16T08:05:39;1.70;93.00
580;DHT22;276;48.392;9.950;2024-01-16T08:08:08;1.70;92.90
580;DHT22;276;48.392;9.950;2024-01-16T08:10:36;1.80;92.90
580;DHT22;276;48.392;9.950;2024-01-16T08:13:01;1.80;92.90
580;DHT22;276;48.392;9.950;2024-01-16T08:15:30;1.80;92.70
580;DHT22;276;48.392;9.950;2024-01-16T08:17:55;1.80;92.40
580;DHT22;276;48.392;9.950;2024-01-16T08:20:23;1.80;92.40
580;DHT22;276;48.392;9.950;2024-01-16T08:22:49;1.80;92.50
580;DHT22;276;48.392;9.950;2024-01-16T08:25:18;1.90;92.70
580;DHT22;276;48.392;9.950;2024-01-16T08:27:45;1.90;92.40
580;DHT22;276;48.392;9.950;2024-01-16T08:30:11;1.90;92.40
580;DHT22;276;48.392;9.950;2024-01-16T08:32:40;2.00;92.30
580;DHT22;276;48.392;9.950;2024-01-16T08:35:08;2.00;92.30
580;DHT22;276;48.392;9.950;2024-01-16T08:37:36;2.00;92.30
580;DHT22;276;48.392;9.950;2024-01-16T08:40:04;2.10;92.30
580;DHT22;276;48.392;9.950;2024-01-16T08:42:33;2.10;92.70
580;DHT22;276;48.392;9.950;2024-01-16T08:45:01;2.20;92.40
580;DHT22;276;48.392;9.950;2024-01-16T08:47:31;2.20;92.40
580;DHT22;276;48.392;9.950;2024-01-16T08:49:57;2.20;92.40
580;DHT22;276;48.392;9.950;2024-01-16T08:52:23;2.30;92.50
580;DHT22;276;48.392;9.950;2024-01-16T08:54:51;2.40;92.60
580;DHT22;276;48.392;9.950;2024-01-16T08:57:16;2.40;92.60
580;DHT22;276;48.392;9.950;2024-01-16T08:59:46;2.40;92.30
580;DHT22;276;48.392;9.950;2024-01-16T09:02:15;2.50;92.40
580;DHT22;276;48.392;9.950;2024-01-16T09:04:43;2.50;92.30
580;DHT22;276;48.392;9.950;2024-01-16T09:07:11;2.60;92.40
580;DHT22;276;48.392;9.950;2024-01-16T09:09:41;2.70;92.40
580;DHT22;276;48.392;9.950;2024-01-16T09:12:10;2.70;92.20
580;DHT22;276;48.392;9.950;2024-01-16T09:14:35;2.70;92.40
580;DHT22;276;48.392;9.950;2024-01-16T09:17:01;2.80;92.40
580;DHT22;276;48.392;9.950;2024-01-16T09:19:33;2.80;92.10
580;DHT22;276;48.392;9.950;2024-01-16T09:21:59;2.80;92.10
580;DHT22;276;48.392;9.950;2024-01-16T09:24:24;2.90;92.20
580;DHT22;276;48.392;9.950;2024-01-16T09:26:50;2.90;92.20
580;DHT22;276;48.392;9.950;2024-01-16T09:29:18;3.00;92.10
580;DHT22;276;48.392;9.950;2024-01-16T09:31:46;3.00;92.00
580;DHT22;276;48.392;9.950;2024-01-16T09:34:14;3.10;91.90
580;DHT22;276;48.392;9.950;2024-01-16T09:36:40;3.30;91.90
580;DHT22;276;48.392;9.950;2024-01-16T09:39:08;3.60;91.90
580;DHT22;276;48.392;9.950;2024-01-16T09:41:40;3.70;91.50
580;DHT22;276;48.392;9.950;2024-01-16T09:44:07;3.90;91.30
580;DHT22;276;48.392;9.950;2024-01-16T09:46:37;4.00;91.00
580;DHT22;276;48.392;9.950;2024-01-16T09:49:06;4.00;91.00
580;DHT22;276;48.392;9.950;2024-01-16T09:51:34;4.10;91.00
580;DHT22;276;48.392;9.950;2024-01-16T09:53:59;4.20;90.90
580;DHT22;276;48.392;9.950;2024-01-16T09:56:28;4.40;90.80
580;DHT22;276;48.392;9.950;2024-01-16T09:58:58;4.50;90.80
580;DHT22;276;48.392;9.950;2024-01-16T10:01:30;4.60;90.70
580;DHT22;276;48.392;9.950;2024-01-16T10:03:59;4.70;90.50
580;DHT22;276;48.392;9.950;2024-01-16T10:06:27;4.90;90.30
580;DHT22;276;48.392;9.950;2024-01-16T10:08:55;5.00;89.40
580;DHT22;276;48.392;9.950;2024-01-16T10:11:23;5.20;88.70
580;DHT22;276;48.392;9.950;2024-01-16T10:13:49;5.30;88.50
580;DHT22;276;48.392;9.950;2024-01-16T10:16:17;5.30;88.10
580;DHT22;276;48.392;9.950;2024-01-16T10:18:42;5.50;88.10
580;DHT22;276;48.392;9.950;2024-01-16T10:21:22;5.60;87.80
580;DHT22;276;48.392;9.950;2024-01-16T10:23:49;5.90;87.70
580;DHT22;276;48.392;9.950;2024-01-16T10:26:14;6.10;86.60
580;DHT22;276;48.392;9.950;2024-01-16T10:28:42;6.40;85.90
580;DHT22;276;48.392;9.950;2024-01-16T10:31:11;6.80;84.70
580;DHT22;276;48.392;9.950;2024-01-16T10:33:39;7.30;84.00
580;DHT22;276;48.392;9.950;2024-01-16T10:38:42;8.50;80.60
580;DHT22;276;48.392;9.950;2024-01-16T10:43:36;8.40;78.00
580;DHT22;276;48.392;9.950;2024-01-16T10:46:17;8.10;77.80
580;DHT22;276;48.392;9.950;2024-01-16T10:48:44;7.80;78.00
580;DHT22;276;48.392;9.950;2024-01-16T10:51:16;7.60;78.30
580;DHT22;276;48.392;9.950;2024-01-16T10:53:46;7.40;78.50
580;DHT22;276;48.392;9.950;2024-01-16T10:56:13;7.50;78.70
580;DHT22;276;48.392;9.950;2024-01-16T10:58:42;7.70;78.40
580;DHT22;276;48.392;9.950;2024-01-16T11:01:13;7.90;77.90
580;DHT22;276;48.392;9.950;2024-01-16T11:03:52;8.40;77.50
580;DHT22;276;48.392;9.950;2024-01-16T11:06:25;9.20;76.70
580;DHT22;276;48.392;9.950;2024-01-16T11:08:59;9.90;74.50
580;DHT22;276;48.392;9.950;2024-01-16T11:11:30;10.60;72.20
580;DHT22;276;48.392;9.950;2024-01-16T11:13:57;11.40;69.10
580;DHT22;276;48.392;9.950;2024-01-16T11:16:24;11.90;66.50
580;DHT22;276;48.392;9.950;2024-01-16T11:18:50;12.30;65.70
580;DHT22;276;48.392;9.950;2024-01-16T11:21:18;12.50;63.30
580;DHT22;276;48.392;9.950;2024-01-16T11:23:46;12.20;61.60
580;DHT22;276;48.392;9.950;2024-01-16T11:28:53;12.30;61.50
580;DHT22;276;48.392;9.950;2024-01-16T11:31:33;13.00;59.60
580;DHT22;276;48.392;9.950;2024-01-16T11:34:02;13.70;58.40
580;DHT22;276;48.392;9.950;2024-01-16T11:36:52;14.40;57.30
580;DHT22;276;48.392;9.950;2024-01-16T11:39:21;14.80;55.20
580;DHT22;276;48.392;9.950;2024-01-16T11:41:53;15.00;54.50
580;DHT22;276;48.392;9.950;2024-01-16T11:47:04;18.70;50.20
580;DHT22;276;48.392;9.950;2024-01-16T11:49:34;20.30;45.20
580;DHT22;276;48.392;9.950;2024-01-16T11:52:00;21.50;42.90
580;DHT22;276;48.392;9.950;2024-01-16T11:54:31;22.00;40.90
580;DHT22;276;48.392;9.950;2024-01-16T12:02:21;22.70;36.40
580;DHT22;276;48.392;9.950;2024-01-16T12:04:53;21.80;36.10
580;DHT22;276;48.392;9.950;2024-01-16T12:07:26;21.30;36.40
580;DHT22;276;48.392;9.950;2024-01-16T12:09:52;21.20;35.90
580;DHT22;276;48.392;9.950;2024-01-16T12:12:17;22.10;36.00
580;DHT22;276;48.392;9.950;2024-01-16T12:14:51;23.30;34.50
580;DHT22;276;48.392;9.950;2024-01-16T12:17:24;24.20;33.60
580;DHT22;276;48.392;9.950;2024-01-16T12:19:50;24.90;32.90
580;DHT22;276;48.392;9.950;2024-01-16T12:22:18;25.60;31.80
580;DHT22;276;48.392;9.950;2024-01-16T12:24:46;26.10;30.90
580;DHT22;276;48.392;9.950;2024-01-16T12:27:13;26.70;30.30
580;DHT22;276;48.392;9.950;2024-01-16T12:29:39;26.80;29.60
580;DHT22;276;48.392;9.950;2024-01-16T12:32:10;27.00;29.70
580;DHT22;276;48.392;9.950;2024-01-16T12:34:46;27.40;29.40
580;DHT22;276;48.392;9.950;2024-01-16T12:37:13;27.40;28.80
580;DHT22;276;48.392;9.950;2024-01-16T12:39:42;27.70;28.80
580;DHT22;276;48.392;9.950;2024-01-16T12:42:13;27.80;28.40
580;DHT22;276;48.392;9.950;2024-01-16T12:44:41;28.00;28.10
580;DHT22;276;48.392;9.950;2024-01-16T12:47:09;28.10;27.50
580;DHT22;276;48.392;9.950;2024-01-16T12:49:42;28.50;27.80
580;DHT22;276;48.392;9.950;2024-01-16T12:52:21;28.60;27.30
580;DHT22;276;48.392;9.950;2024-01-16T12:54:48;28.70;27.40
580;DHT22;276;48.392;9.950;2024-01-16T12:57:18;28.60;27.50
580;DHT22;276;48.392;9.950;2024-01-16T12:59:46;28.40;27.10
580;DHT22;276;48.392;9.950;2024-01-16T13:02:22;27.90;26.90
580;DHT22;276;48.392;9.950;2024-01-16T13:04:59;27.40;27.20
580;DHT22;276;48.392;9.950;2024-01-16T13:07:28;26.70;27.20
580;DHT22;276;48.392;9.950;2024-01-16T13:10:13;25.80;27.30
580;DHT22;276;48.392;9.950;2024-01-16T13:12:43;24.80;27.40
580;DHT22;276;48.392;9.950;2024-01-16T13:15:12;23.70;27.50
580;DHT22;276;48.392;9.950;2024-01-16T13:17:42;22.60;28.00
580;DHT22;276;48.392;9.950;2024-01-16T13:20:10;21.60;29.10
580;DHT22;276;48.392;9.950;2024-01-16T13:22:42;20.40;29.40
580;DHT22;276;48.392;9.950;2024-01-16T13:25:08;19.20;30.20
580;DHT22;276;48.392;9.950;2024-01-16T13:27:34;17.90;31.20
580;DHT22;276;48.392;9.950;2024-01-16T13:30:00;16.80;32.60
580;DHT22;276;48.392;9.950;2024-01-16T13:32:28;15.50;33.40
580;DHT22;276;48.392;9.950;2024-01-16T13:34:58;14.30;35.00
580;DHT22;276;48.392;9.950;2024-01-16T13:37:24;13.30;36.30
580;DHT22;276;48.392;9.950;2024-01-16T13:39:49;12.50;37.20
580;DHT22;276;48.392;9.950;2024-01-16T13:42:20;11.80;37.90
580;DHT22;276;48.392;9.950;2024-01-16T13:44:46;11.20;39.20
580;DHT22;276;48.392;9.950;2024-01-16T13:47:11;10.70;39.90
580;DHT22;276;48.392;9.950;2024-01-16T13:49:37;10.30;40.60
580;DHT22;276;48.392;9.950;2024-01-16T13:52:03;9.90;42.20
580;DHT22;276;48.392;9.950;2024-01-16T13:54:29;9.60;42.90
580;DHT22;276;48.392;9.950;2024-01-16T13:56:59;9.30;43.40
580;DHT22;276;48.392;9.950;2024-01-16T13:59:24;9.10;44.10
580;DHT22;276;48.392;9.950;2024-01-16T14:01:50;8.90;44.30
580;DHT22;276;48.392;9.950;2024-01-16T14:04:18;8.70;45.20
580;DHT22;276;48.392;9.950;2024-01-16T14:06:48;8.60;45.70
580;DHT22;276;48.392;9.950;2024-01-16T14:09:16;8.50;46.70
580;DHT22;276;48.392;9.950;2024-01-16T14:11:44;8.30;46.70
580;DHT22;276;48.392;9.950;2024-01-16T14:14:12;8.20;46.90
580;DHT22;276;48.392;9.950;2024-01-16T14:16:38;8.20;47.70
580;DHT22;276;48.392;9.950;2024-01-16T14:19:06;8.00;47.90
580;DHT22;276;48.392;9.950;2024-01-16T14:21:34;7.90;48.40
580;DHT22;276;48.392;9.950;2024-01-16T14:24:00;7.80;48.70
580;DHT22;276;48.392;9.950;2024-01-16T14:26:26;7.70;49.20
580;DHT22;276;48.392;9.950;2024-01-16T14:28:51;7.60;49.50
580;DHT22;276;48.392;9.950;2024-01-16T14:31:17;7.40;50.10
580;DHT22;276;48.392;9.950;2024-01-16T14:33:45;7.30;50.40
580;DHT22;276;48.392;9.950;2024-01-16T14:36:10;7.20;50.60
580;DHT22;276;48.392;9.950;2024-01-16T14:38:38;7.00;51.10
580;DHT22;276;48.392;9.950;2024-01-16T14:41:06;6.90;51.60
580;DHT22;276;48.392;9.950;2024-01-16T14:43:36;6.70;52.10
580;DHT22;276;48.392;9.950;2024-01-16T14:46:05;6.60;52.50
580;DHT22;276;48.392;9.950;2024-01-16T14:48:43;6.40;52.80
580;DHT22;276;48.392;9.950;2024-01-16T14:51:09;6.30;53.30
580;DHT22;276;48.392;9.950;2024-01-16T14:53:41;6.30;53.60
580;DHT22;276;48.392;9.950;2024-01-16T14:56:09;6.30;54.00
580;DHT22;276;48.392;9.950;2024-01-16T14:58:38;6.20;54.00
580;DHT22;276;48.392;9.950;2024-01-16T15:01:08;6.20;54.10
580;DHT22;276;48.392;9.950;2024-01-16T15:03:36;6.10;54.30
580;DHT22;276;48.392;9.950;2024-01-16T15:06:04;6.00;55.20
580;DHT22;276;48.392;9.950;2024-01-16T15:08:30;6.00;54.90
580;DHT22;276;48.392;9.950;2024-01-16T15:11:00;5.90;55.60
580;DHT22;276;48.392;9.950;2024-01-16T15:13:30;5.90;55.50
580;DHT22;276;48.392;9.950;2024-01-16T15:15:55;5.80;55.60
580;DHT22;276;48.392;9.950;2024-01-16T15:18:24;5.70;55.80
580;DHT22;276;48.392;9.950;2024-01-16T15:20:50;5.70;56.20
580;DHT22;276;48.392;9.950;2024-01-16T15:23:16;5.60;56.60
580;DHT22;276;48.392;9.950;2024-01-16T15:25:42;5.60;56.90
580;DHT22;276;48.392;9.950;2024-01-16T15:28:08;5.60;57.40
580;DHT22;276;48.392;9.950;2024-01-16T15:30:38;5.60;57.90
580;DHT22;276;48.392;9.950;2024-01-16T15:33:08;5.50;58.30
580;DHT22;276;48.392;9.950;2024-01-16T15:35:33;5.50;58.70
580;DHT22;276;48.392;9.950;2024-01-16T15:38:01;5.50;59.00
580;DHT22;276;48.392;9.950;2024-01-16T15:40:30;5.40;59.40
580;DHT22;276;48.392;9.950;2024-01-16T15:42:59;5.40;59.90
580;DHT22;276;48.392;9.950;2024-01-16T15:45:25;5.30;60.50
580;DHT22;276;48.392;9.950;2024-01-16T15:47:51;5.20;61.00
580;DHT22;276;48.392;9.950;2024-01-16T15:50:18;5.20;61.10
580;DHT22;276;48.392;9.950;2024-01-16T15:52:44;5.10;61.80
580;DHT22;276;48.392;9.950;2024-01-16T15:55:09;5.10;62.50
580;DHT22;276;48.392;9.950;2024-01-16T15:57:39;5.00;63.70
580;DHT22;276;48.392;9.950;2024-01-16T16:00:06;4.90;63.60
580;DHT22;276;48.392;9.950;2024-01-16T16:02:37;4.90;63.80
580;DHT22;276;48.392;9.950;2024-01-16T16:05:03;4.90;63.80
580;DHT22;276;48.392;9.950;2024-01-16T16:07:31;4.80;64.30
580;DHT22;276;48.392;9.950;2024-01-16T16:09:57;4.70;64.80
580;DHT22;276;48.392;9.950;2024-01-16T16:12:23;4.70;64.90
580;DHT22;276;48.392;9.950;2024-01-16T16:14:51;4.60;65.30
580;DHT22;276;48.392;9.950;2024-01-16T16:17:17;4.60;66.40
580;DHT22;276;48.392;9.950;2024-01-16T16:19:42;4.60;65.70
580;DHT22;276;48.392;9.950;2024-01-16T16:22:08;4.60;65.80
580;DHT22;276;48.392;9.950;2024-01-16T16:24:36;4.50;66.20
580;DHT22;276;48.392;9.950;2024-01-16T16:27:24;4.40;66.80
580;DHT22;276;48.392;9.950;2024-01-16T16:29:54;4.40;67.80
580;DHT22;276;48.392;9.950;2024-01-16T16:32:20;4.30;67.30
580;DHT22;276;48.392;9.950;2024-01-16T16:34:46;4.20;67.40
580;DHT22;276;48.392;9.950;2024-01-16T16:37:12;4.10;67.50
580;DHT22;276;48.392;9.950;2024-01-16T16:39:40;4.10;68.00
580;DHT22;276;48.392;9.950;2024-01-16T16:42:11;4.00;68.10
580;DHT22;276;48.392;9.950;2024-01-16T16:44:36;4.00;68.30
580;DHT22;276;48.392;9.950;2024-01-16T16:47:02;3.90;68.30
580;DHT22;276;48.392;9.950;2024-01-16T16:49:28;3.90;68.30
580;DHT22;276;48.392;9.950;2024-01-16T16:51:54;3.90;68.50
580;DHT22;276;48.392;9.950;2024-01-16T16:54:19;3.80;68.60
580;DHT22;276;48.392;9.950;2024-01-16T16:56:45;3.80;68.80
580;DHT22;276;48.392;9.950;2024-01-16T16:59:11;3.80;69.10
580;DHT22;276;48.392;9.950;2024-01-16T17:01:37;3.70;69.40
580;DHT22;276;48.392;9.950;2024-01-16T17:04:04;3.70;70.10
580;DHT22;276;48.392;9.950;2024-01-16T17:06:30;3.60;70.60
580;DHT22;276;48.392;9.950;2024-01-16T17:08:56;3.50;71.00